Time;durP1;ratioP1;P1;durP2;ratioP2;P2;SDS_P1;SDS_P2;PMS_P1;PMS_P2;Temp;Humidity;BMP_temperature;BMP_pressure;BME280_temperature;BME280_humidity;BME280_pressure;Samples;Min_cycle;Max_cycle;Signal;HPM_P1;HPM_P2
2023/06/18 00:01:56;;;;;;;12.30;4.88;;;20.30;99.90;;;;;;5117705;27;45785;-71
2023/06/18 00:04:23;;;;;;;8.30;4.30;;;20.20;99.90;;;;;;5115831;27;45529;-71
2023/06/18 00:06:49;;;;;;;8.02;4.38;;;20.20;99.90;;;;;;5122201;27;45503;-72
2023/06/18 00:09:16;;;;;;;12.68;4.72;;;20.20;99.90;;;;;;5118991;27;45440;-71
2023/06/18 00:11:44;;;;;;;8.55;4.63;;;20.20;99.90;;;;;;5117561;27;45649;-73
2023/06/18 00:14:11;;;;;;;10.02;5.10;;;20.10;99.90;;;;;;5116676;27;45438;-72
2023/06/18 00:16:38;;;;;;;6.55;4.20;;;20.10;99.90;;;;;;5119896;27;45440;-71
2023/06/18 00:19:05;;;;;;;8.02;4.70;;;20.00;99.90;;;;;;5121352;27;48060;-71
2023/06/18 00:21:32;;;;;;;8.70;4.80;;;20.00;99.90;;;;;;5116535;27;45373;-71
2023/06/18 00:23:58;;;;;;;9.35;4.55;;;20.00;99.90;;;;;;5116206;27;45423;-71
2023/06/18 00:26:25;;;;;;;10.63;4.93;;;20.10;99.70;;;;;;5117961;27;45428;-71
2023/06/18 00:28:53;;;;;;;8.90;4.85;;;20.10;99.90;;;;;;5115051;27;47799;-71
2023/06/18 00:31:20;;;;;;;8.75;4.32;;;20.00;99.90;;;;;;5119807;27;45427;-72
2023/06/18 00:33:47;;;;;;;9.10;4.65;;;19.90;99.90;;;;;;5115520;27;45562;-72
2023/06/18 00:36:15;;;;;;;10.43;4.20;;;19.80;99.90;;;;;;5118564;27;45860;-71
2023/06/18 00:38:45;;;;;;;7.97;4.50;;;19.90;99.90;;;;;;5117633;27;45505;-72
2023/06/18 00:41:12;;;;;;;9.85;4.55;;;19.90;99.90;;;;;;5120127;27;46117;-71
2023/06/18 00:43:39;;;;;;;6.95;4.20;;;19.90;99.90;;;;;;5117459;27;45368;-71
2023/06/18 00:46:08;;;;;;;10.13;4.68;;;20.00;99.10;;;;;;5118496;27;45478;-71
2023/06/18 00:48:35;;;;;;;9.75;4.35;;;19.90;99.70;;;;;;5114160;27;48300;-71
2023/06/18 00:51:03;;;;;;;8.02;4.30;;;19.90;99.50;;;;;;5118813;27;45791;-73
2023/06/18 00:53:30;;;;;;;9.23;4.40;;;19.90;99.10;;;;;;5117534;27;45642;-72
2023/06/18 00:55:57;;;;;;;7.90;4.63;;;19.90;99.90;;;;;;5116066;27;45486;-72
2023/06/18 00:58:25;;;;;;;6.82;4.43;;;19.90;99.70;;;;;;5114983;27;46148;-72
2023/06/18 01:00:52;;;;;;;9.02;4.35;;;19.90;99.60;;;;;;5114027;27;45670;-72
2023/06/18 01:03:21;;;;;;;6.95;4.00;;;19.90;99.50;;;;;;5120324;27;46510;-72
2023/06/18 01:12:32;;;;;;;13.85;4.50;;;19.90;98.30;;;;;;5112936;27;45397;-71
2023/06/18 01:14:59;;;;;;;8.20;4.47;;;19.90;96.60;;;;;;5118402;27;45433;-71
2023/06/18 01:17:29;;;;;;;6.20;4.00;;;19.90;97.60;;;;;;5122343;27;45434;-71
2023/06/18 01:20:08;;;;;;;8.07;3.88;;;19.90;98.10;;;;;;5116438;27;46573;-71
2023/06/18 01:22:40;;;;;;;9.93;4.53;;;19.90;98.00;;;;;;5121733;27;46444;-71
2023/06/18 01:25:09;;;;;;;8.27;4.43;;;19.90;98.00;;;;;;5113824;27;45527;-71
2023/06/18 01:27:40;;;;;;;10.15;4.20;;;19.90;95.50;;;;;;5113790;27;45234;-72
2023/06/18 01:30:10;;;;;;;6.43;4.32;;;19.90;97.00;;;;;;5116530;27;45474;-71
2023/06/18 01:32:38;;;;;;;7.72;3.95;;;19.90;97.40;;;;;;5117289;27;45261;-71
2023/06/18 01:35:07;;;;;;;8.00;4.38;;;19.80;97.20;;;;;;5123166;27;45250;-71
2023/06/18 01:37:44;;;;;;;6.68;4.13;;;19.80;98.70;;;;;;5118181;27;45312;-71
2023/06/18 01:40:27;;;;;;;10.07;4.40;;;19.60;98.90;;;;;;5124588;27;46535;-71
2023/06/18 01:43:00;;;;;;;8.10;4.47;;;19.40;99.70;;;;;;5120585;27;45633;-71
2023/06/18 01:45:32;;;;;;;6.78;4.50;;;19.30;99.70;;;;;;5124182;27;45392;-72
2023/06/18 01:48:03;;;;;;;8.23;4.10;;;19.30;99.80;;;;;;5123920;27;45400;-71
2023/06/18 01:50:35;;;;;;;11.80;4.60;;;19.30;99.70;;;;;;5120558;27;47177;-71
2023/06/18 01:53:05;;;;;;;7.20;4.45;;;19.30;99.00;;;;;;5120328;27;45490;-72
2023/06/18 01:55:34;;;;;;;8.52;4.00;;;19.30;99.10;;;;;;5114615;27;45437;-71
2023/06/18 01:58:01;;;;;;;8.23;4.50;;;19.40;99.10;;;;;;5125180;27;45423;-71
2023/06/18 02:00:28;;;;;;;10.85;5.00;;;19.50;98.50;;;;;;5117132;27;46412;-71
2023/06/18 02:02:55;;;;;;;8.65;4.60;;;19.40;99.20;;;;;;5113255;27;45271;-71
2023/06/18 02:05:22;;;;;;;7.47;4.22;;;19.30;98.70;;;;;;5125717;27;45330;-71
2023/06/18 02:07:50;;;;;;;5.47;4.03;;;19.30;99.30;;;;;;5125204;27;45340;-71
2023/06/18 02:10:17;;;;;;;7.20;4.18;;;19.40;99.50;;;;;;5118199;27;48307;-71
2023/06/18 02:12:43;;;;;;;7.47;4.07;;;19.40;99.90;;;;;;5126861;27;45338;-71
2023/06/18 02:15:10;;;;;;;6.20;4.07;;;19.30;99.50;;;;;;5128174;27;45510;-71
2023/06/18 02:17:37;;;;;;;4.80;4.00;;;19.20;99.90;;;;;;5119523;27;45362;-71
2023/06/18 02:20:06;;;;;;;8.48;4.57;;;19.10;99.90;;;;;;5114570;27;46604;-71
2023/06/18 02:22:33;;;;;;;5.70;3.95;;;19.20;99.90;;;;;;5126154;27;45468;-71
2023/06/18 02:25:01;;;;;;;5.75;4.38;;;19.20;99.90;;;;;;5112769;27;45271;-71
2023/06/18 02:27:28;;;;;;;10.20;4.63;;;18.90;99.90;;;;;;5125622;27;45224;-71
2023/06/18 02:29:55;;;;;;;8.85;4.15;;;19.30;99.90;;;;;;5120813;27;46907;-71
2023/06/18 02:32:21;;;;;;;7.32;4.40;;;19.40;99.80;;;;;;5116991;27;45361;-71
2023/06/18 02:34:48;;;;;;;8.40;4.82;;;19.30;99.50;;;;;;5114885;27;45177;-71
2023/06/18 02:37:15;;;;;;;5.05;4.25;;;19.30;99.00;;;;;;5123362;27;45381;-72
2023/06/18 02:39:42;;;;;;;6.95;3.92;;;19.40;99.20;;;;;;5123257;27;45502;-71
2023/06/18 02:42:10;;;;;;;10.00;4.50;;;19.50;99.00;;;;;;5117984;27;45363;-71
2023/06/18 02:44:39;;;;;;;6.82;4.65;;;19.70;97.50;;;;;;5126366;27;45244;-71
2023/06/18 02:47:07;;;;;;;6.45;4.28;;;19.80;98.00;;;;;;5121766;27;45287;-71
2023/06/18 02:49:34;;;;;;;7.82;4.50;;;19.60;97.80;;;;;;5112411;27;45465;-71
2023/06/18 02:52:01;;;;;;;7.70;4.15;;;19.50;97.50;;;;;;5117803;27;45256;-71
2023/06/18 02:54:28;;;;;;;7.90;4.88;;;19.80;97.30;;;;;;5119894;27;45194;-71
2023/06/18 02:56:54;;;;;;;9.43;4.45;;;19.90;97.00;;;;;;5121937;27;45514;-71
2023/06/18 02:59:23;;;;;;;6.80;4.32;;;19.80;97.20;;;;;;5112258;27;46653;-71
2023/06/18 03:01:50;;;;;;;7.88;4.50;;;19.80;96.90;;;;;;5121943;27;45283;-71
2023/06/18 03:04:17;;;;;;;11.95;5.03;;;20.10;96.80;;;;;;5116148;27;45351;-72
2023/06/18 03:06:44;;;;;;;8.15;4.90;;;20.30;95.60;;;;;;5126434;27;45397;-71
2023/06/18 03:09:11;;;;;;;7.28;4.32;;;20.20;95.70;;;;;;5126399;27;47523;-71
2023/06/18 03:11:38;;;;;;;8.85;5.05;;;20.10;96.00;;;;;;5122794;27;45202;-71
2023/06/18 03:14:04;;;;;;;9.27;4.72;;;20.10;96.00;;;;;;5116656;27;45474;-71
2023/06/18 03:16:33;;;;;;;8.15;4.40;;;20.10;95.80;;;;;;5125612;27;45200;-70
2023/06/18 03:19:00;;;;;;;7.60;4.75;;;20.00;96.10;;;;;;5117317;27;48372;-71
2023/06/18 03:21:27;;;;;;;7.97;4.70;;;20.00;96.10;;;;;;5117605;27;45488;-71
2023/06/18 03:23:54;;;;;;;9.45;5.03;;;20.00;96.10;;;;;;5118980;27;45313;-71
2023/06/18 03:26:21;;;;;;;7.38;4.30;;;19.90;96.30;;;;;;5122187;27;45347;-71
2023/06/18 03:28:48;;;;;;;10.68;5.63;;;19.80;96.10;;;;;;5126727;27;46736;-71
2023/06/18 03:31:15;;;;;;;10.60;5.03;;;19.80;96.50;;;;;;5124758;27;45354;-71
2023/06/18 03:33:43;;;;;;;12.05;4.90;;;19.90;96.20;;;;;;5122923;27;45343;-71
2023/06/18 03:36:15;;;;;;;9.15;4.57;;;19.80;96.00;;;;;;5121015;27;45475;-71
2023/06/18 03:38:42;;;;;;;7.97;5.00;;;19.80;96.40;;;;;;5125770;27;46658;-71
2023/06/18 03:41:09;;;;;;;8.57;4.70;;;19.90;96.00;;;;;;5126520;27;45241;-71
2023/06/18 03:43:35;;;;;;;10.52;4.40;;;19.90;96.20;;;;;;5124276;27;45509;-71
2023/06/18 03:46:03;;;;;;;8.95;4.32;;;19.90;96.00;;;;;;5106634;27;45311;-71
2023/06/18 03:48:30;;;;;;;7.88;4.60;;;19.90;96.10;;;;;;5121245;27;46316;-71
2023/06/18 03:50:58;;;;;;;9.00;5.10;;;19.90;96.40;;;;;;5112793;27;45271;-71
2023/06/18 03:53:25;;;;;;;7.78;4.65;;;19.90;96.40;;;;;;5120781;27;45255;-71
2023/06/18 03:55:52;;;;;;;10.50;4.72;;;19.90;96.10;;;;;;5119192;27;45616;-71
2023/06/18 03:58:18;;;;;;;8.52;4.30;;;20.00;96.70;;;;;;5114801;27;48883;-71
2023/06/18 04:00:45;;;;;;;8.50;3.83;;;19.90;96.60;;;;;;5114822;27;45468;-71
2023/06/18 04:03:12;;;;;;;10.70;3.92;;;20.20;96.30;;;;;;5120595;27;45331;-71
2023/06/18 04:05:39;;;;;;;7.07;3.67;;;20.50;95.40;;;;;;5118959;27;45530;-71
2023/06/18 04:08:07;;;;;;;6.45;4.05;;;20.60;95.10;;;;;;5111340;27;46176;-71
2023/06/18 04:10:34;;;;;;;6.38;3.63;;;20.40;95.10;;;;;;5115900;27;45429;-71
2023/06/18 04:13:01;;;;;;;7.18;4.10;;;20.60;94.90;;;;;;5116296;27;45276;-71
2023/06/18 04:15:27;;;;;;;10.25;4.72;;;20.50;94.30;;;;;;5125635;27;45502;-71
2023/06/18 04:17:54;;;;;;;8.93;4.70;;;20.40;93.90;;;;;;5114093;27;46522;-72
2023/06/18 04:20:21;;;;;;;5.93;3.88;;;20.40;94.20;;;;;;5118948;27;45769;-71
2023/06/18 04:22:48;;;;;;;12.20;4.13;;;20.60;95.40;;;;;;5113938;27;45294;-71
2023/06/18 04:25:16;;;;;;;5.53;3.67;;;20.70;93.10;;;;;;5106630;27;45207;-71
2023/06/18 04:27:44;;;;;;;9.50;4.30;;;20.90;94.00;;;;;;5117620;27;48177;-71
2023/06/18 04:30:11;;;;;;;12.50;4.18;;;21.10;93.20;;;;;;5126253;27;45298;-71
2023/06/18 04:32:38;;;;;;;6.70;3.63;;;21.00;92.20;;;;;;5124074;27;45216;-71
2023/06/18 04:35:05;;;;;;;4.88;3.22;;;20.90;94.10;;;;;;5116809;27;45621;-71
2023/06/18 04:37:32;;;;;;;5.03;3.90;;;21.20;94.00;;;;;;5122686;27;46573;-72
2023/06/18 04:39:59;;;;;;;8.05;4.00;;;21.10;91.90;;;;;;5110460;27;45528;-71
2023/06/18 04:42:27;;;;;;;9.27;4.38;;;21.20;92.50;;;;;;5115457;27;45353;-71
2023/06/18 04:44:54;;;;;;;5.13;2.97;;;21.30;92.40;;;;;;5120957;27;45280;-71
2023/06/18 04:47:20;;;;;;;4.13;2.92;;;21.40;92.70;;;;;;5125881;27;45658;-71
2023/06/18 04:49:47;;;;;;;4.20;2.97;;;21.60;92.50;;;;;;5123041;27;45253;-72
2023/06/18 04:52:14;;;;;;;7.72;3.78;;;21.70;92.40;;;;;;5117907;27;45273;-71
2023/06/18 04:54:42;;;;;;;6.25;3.80;;;21.80;91.30;;;;;;5117225;27;45555;-71
2023/06/18 04:57:09;;;;;;;6.10;3.70;;;21.70;91.50;;;;;;5114638;27;47562;-71
2023/06/18 04:59:38;;;;;;;5.07;3.50;;;21.70;91.30;;;;;;5120178;27;45323;-71
2023/06/18 05:02:05;;;;;;;4.57;3.25;;;21.70;91.90;;;;;;5125920;27;45389;-71
2023/06/18 05:04:32;;;;;;;6.95;4.70;;;21.80;91.60;;;;;;5117009;27;45380;-71
2023/06/18 05:06:59;;;;;;;8.00;4.45;;;21.80;90.20;;;;;;5118752;27;48081;-71
2023/06/18 05:09:27;;;;;;;4.40;3.58;;;21.70;90.60;;;;;;5121355;27;45332;-72
2023/06/18 05:11:54;;;;;;;7.38;4.10;;;21.60;91.80;;;;;;5107766;27;45329;-71
2023/06/18 05:14:20;;;;;;;5.03;3.20;;;21.70;90.90;;;;;;5113738;27;45559;-72
2023/06/18 05:16:49;;;;;;;9.05;3.55;;;21.80;91.30;;;;;;5119594;27;45330;-71
2023/06/18 05:19:15;;;;;;;5.35;3.03;;;21.80;90.90;;;;;;5119543;27;45400;-71
2023/06/18 05:21:42;;;;;;;7.18;4.20;;;21.80;91.30;;;;;;5122299;27;45292;-71
2023/06/18 05:24:09;;;;;;;4.40;3.40;;;21.80;90.50;;;;;;5125607;27;45340;-73
2023/06/18 05:26:36;;;;;;;4.45;3.03;;;21.80;91.00;;;;;;5122934;27;47443;-71
2023/06/18 05:29:03;;;;;;;4.07;2.90;;;21.90;91.10;;;;;;5106889;27;45267;-72
2023/06/18 05:31:29;;;;;;;3.45;2.80;;;22.00;90.90;;;;;;5108486;27;45324;-71
2023/06/18 05:33:57;;;;;;;3.20;2.58;;;22.00;90.90;;;;;;5115602;27;45547;-71
2023/06/18 05:36:25;;;;;;;4.47;2.85;;;22.10;90.70;;;;;;5120891;27;46287;-71
2023/06/18 05:38:58;;;;;;;4.18;3.10;;;22.10;90.70;;;;;;5115607;27;45280;-71
2023/06/18 05:41:25;;;;;;;4.07;2.80;;;22.10;90.60;;;;;;5123744;27;45378;-71
2023/06/18 05:43:52;;;;;;;3.60;2.63;;;22.10;91.10;;;;;;5128785;27;45290;-71
2023/06/18 05:46:19;;;;;;;3.58;2.60;;;22.10;91.40;;;;;;5110988;27;48065;-71
2023/06/18 05:48:46;;;;;;;3.45;2.55;;;22.10;91.10;;;;;;5121449;27;45269;-71
2023/06/18 05:51:14;;;;;;;3.58;2.67;;;22.10;91.20;;;;;;5127296;27;45413;-71
2023/06/18 05:53:41;;;;;;;2.95;2.10;;;22.10;91.10;;;;;;5125487;27;45477;-72
2023/06/18 05:56:07;;;;;;;3.80;2.60;;;22.20;91.20;;;;;;5128167;27;47911;-71
2023/06/18 05:58:34;;;;;;;3.83;3.10;;;22.20;90.60;;;;;;5121647;27;45206;-71
2023/06/18 06:01:01;;;;;;;6.03;3.40;;;22.20;90.20;;;;;;5122800;27;45431;-72
2023/06/18 06:03:28;;;;;;;4.63;2.97;;;22.20;89.90;;;;;;5126807;27;45176;-71
2023/06/18 06:05:55;;;;;;;3.38;2.55;;;22.20;90.30;;;;;;5128355;27;46662;-71
2023/06/18 06:08:23;;;;;;;2.85;2.40;;;22.20;92.70;;;;;;5127156;27;45353;-71
2023/06/18 06:10:51;;;;;;;3.25;2.58;;;22.20;94.10;;;;;;5112713;27;45268;-71
2023/06/18 06:13:19;;;;;;;4.15;2.72;;;22.20;93.00;;;;;;5114029;27;45434;-71
2023/06/18 06:15:45;;;;;;;3.63;2.50;;;22.20;91.00;;;;;;5116076;27;46320;-72
2023/06/18 06:18:12;;;;;;;3.05;2.50;;;22.20;90.20;;;;;;5119826;27;45332;-71
2023/06/18 06:20:39;;;;;;;5.38;4.03;;;22.30;90.70;;;;;;5128294;27;45185;-71
2023/06/18 06:23:06;;;;;;;5.57;2.75;;;22.20;88.80;;;;;;5121745;27;45288;-71
2023/06/18 06:25:34;;;;;;;5.03;2.67;;;22.20;90.00;;;;;;5112644;27;45314;-71
2023/06/18 06:28:01;;;;;;;4.35;2.78;;;22.30;89.80;;;;;;5124427;27;45331;-71
2023/06/18 06:30:27;;;;;;;3.47;2.58;;;22.30;89.80;;;;;;5127930;27;45357;-72
2023/06/18 06:32:54;;;;;;;3.20;2.50;;;22.30;91.20;;;;;;5127856;27;45557;-71
2023/06/18 06:35:23;;;;;;;3.65;2.40;;;22.30;92.20;;;;;;5122061;27;47438;-71
2023/06/18 06:37:50;;;;;;;3.60;2.60;;;22.30;90.90;;;;;;5126289;27;45990;-71
2023/06/18 06:40:17;;;;;;;3.15;2.47;;;22.30;91.60;;;;;;5127652;27;45274;-71
2023/06/18 06:42:45;;;;;;;3.70;2.78;;;22.30;90.30;;;;;;5126965;27;45593;-71
2023/06/18 06:45:12;;;;;;;3.75;2.80;;;22.30;89.80;;;;;;5127487;27;45459;-72
2023/06/18 06:47:42;;;;;;;3.30;2.65;;;22.30;89.20;;;;;;5127762;27;45260;-71
2023/06/18 06:50:09;;;;;;;4.20;2.92;;;22.40;89.60;;;;;;5127451;27;45321;-73
2023/06/18 06:52:35;;;;;;;3.92;2.47;;;22.40;88.40;;;;;;5115025;27;45218;-71
2023/06/18 06:55:03;;;;;;;3.05;2.35;;;22.50;87.40;;;;;;5116954;27;46256;-73
2023/06/18 06:57:29;;;;;;;3.67;2.30;;;22.50;87.30;;;;;;5125807;27;45588;-71
2023/06/18 06:59:58;;;;;;;3.75;2.70;;;22.50;87.20;;;;;;5120033;27;45342;-71
2023/06/18 07:02:24;;;;;;;4.63;2.50;;;22.50;86.10;;;;;;5117050;27;45454;-71
2023/06/18 07:04:51;;;;;;;4.05;2.65;;;22.50;85.80;;;;;;5118842;27;46310;-71
2023/06/18 07:07:18;;;;;;;3.42;2.67;;;22.50;87.60;;;;;;5127497;27;45223;-72
2023/06/18 07:09:45;;;;;;;3.30;2.60;;;22.40;88.90;;;;;;5126835;27;45269;-71
2023/06/18 07:12:12;;;;;;;5.07;2.90;;;22.40;87.70;;;;;;5126319;27;45386;-71
2023/06/18 07:14:39;;;;;;;3.90;2.70;;;22.50;87.60;;;;;;5113828;27;46649;-72
2023/06/18 07:17:07;;;;;;;4.35;2.60;;;22.50;86.90;;;;;;5121077;27;45301;-71
2023/06/18 07:19:33;;;;;;;4.28;2.63;;;22.50;86.70;;;;;;5118025;27;45243;-72
2023/06/18 07:22:01;;;;;;;3.30;2.63;;;22.50;87.40;;;;;;5116018;27;45298;-71
2023/06/18 07:24:29;;;;;;;5.47;2.75;;;22.50;87.20;;;;;;5117705;27;47243;-71
2023/06/18 07:26:56;;;;;;;3.67;2.45;;;22.50;86.40;;;;;;5116187;27;45353;-72
2023/06/18 07:29:23;;;;;;;3.20;2.42;;;22.50;86.00;;;;;;5119546;27;45419;-71
2023/06/18 07:31:49;;;;;;;3.58;2.60;;;22.50;85.50;;;;;;5119718;27;45452;-71
2023/06/18 07:34:17;;;;;;;9.52;4.00;;;22.50;85.70;;;;;;5116554;27;46347;-72
2023/06/18 07:36:44;;;;;;;3.58;2.38;;;22.40;83.90;;;;;;5118990;27;45490;-71
2023/06/18 07:39:11;;;;;;;3.33;2.58;;;22.50;85.40;;;;;;5114367;27;45277;-67
2023/06/18 07:41:38;;;;;;;5.95;2.80;;;22.50;85.30;;;;;;5119363;27;45316;-71
2023/06/18 07:44:05;;;;;;;3.60;2.58;;;22.50;87.00;;;;;;5124187;27;46303;-72
2023/06/18 07:46:33;;;;;;;10.73;3.28;;;22.60;87.60;;;;;;5127326;27;45338;-69
2023/06/18 07:49:00;;;;;;;11.13;2.70;;;22.60;86.20;;;;;;5112441;27;45280;-72
2023/06/18 07:51:29;;;;;;;3.78;2.67;;;22.70;87.10;;;;;;5110095;27;45581;-71
2023/06/18 07:53:55;;;;;;;9.27;2.58;;;22.60;85.80;;;;;;5121543;27;47542;-72
2023/06/18 07:56:24;;;;;;;4.15;2.90;;;22.60;85.50;;;;;;5121711;27;45437;-72
2023/06/18 07:58:51;;;;;;;9.43;2.90;;;22.60;85.70;;;;;;5118698;27;45311;-72
2023/06/18 08:01:17;;;;;;;6.07;3.00;;;22.60;86.10;;;;;;5117387;27;45554;-73
2023/06/18 08:03:44;;;;;;;4.38;3.05;;;22.60;86.40;;;;;;5123378;27;46279;-72
2023/06/18 08:06:11;;;;;;;3.60;2.70;;;22.60;86.30;;;;;;5121527;27;45380;-71
2023/06/18 08:08:39;;;;;;;7.03;2.65;;;22.60;86.00;;;;;;5117535;27;45294;-72
2023/06/18 08:11:06;;;;;;;4.22;2.85;;;22.60;83.10;;;;;;5120718;27;45172;-72
2023/06/18 08:13:33;;;;;;;4.75;3.00;;;22.60;85.40;;;;;;5106999;27;48192;-72
2023/06/18 08:16:00;;;;;;;6.78;3.40;;;22.60;85.90;;;;;;5113737;27;45420;-72
2023/06/18 08:18:27;;;;;;;5.53;3.35;;;22.60;85.90;;;;;;5127038;27;45277;-72
2023/06/18 08:20:55;;;;;;;5.53;3.20;;;22.50;87.40;;;;;;5126936;27;45195;-72
2023/06/18 08:23:21;;;;;;;6.75;3.55;;;22.50;87.00;;;;;;5115570;27;46338;-72
2023/06/18 08:25:50;;;;;;;8.30;3.50;;;22.50;89.00;;;;;;5126986;27;45359;-73
2023/06/18 08:28:16;;;;;;;8.40;3.55;;;22.50;88.70;;;;;;5125687;27;45181;-72
2023/06/18 08:30:43;;;;;;;5.93;3.50;;;22.50;83.30;;;;;;5126263;27;45249;-73
2023/06/18 08:33:11;;;;;;;11.15;3.88;;;22.50;85.40;;;;;;5126566;27;46606;-73
2023/06/18 08:35:38;;;;;;;6.53;3.60;;;22.50;82.40;;;;;;5126493;27;45382;-73
2023/06/18 08:38:05;;;;;;;5.85;3.03;;;22.60;83.80;;;;;;5126984;27;45262;-73
2023/06/18 08:40:36;;;;;;;5.45;3.10;;;22.60;88.10;;;;;;5127099;27;45204;-73
2023/06/18 08:43:09;;;;;;;5.50;3.53;;;22.60;88.40;;;;;;5122320;27;46585;-73
2023/06/18 08:45:36;;;;;;;6.32;3.63;;;22.60;87.40;;;;;;5111001;27;45293;-73
2023/06/18 08:48:07;;;;;;;7.38;3.25;;;22.60;90.40;;;;;;5112557;27;45275;-73
2023/06/18 08:50:36;;;;;;;6.72;3.88;;;22.60;89.30;;;;;;5124281;27;45416;-73
2023/06/18 08:53:12;;;;;;;5.85;3.28;;;22.60;90.40;;;;;;5120909;27;46635;-73
2023/06/18 08:55:40;;;;;;;11.05;4.35;;;22.60;90.30;;;;;;5123686;27;45631;-72
2023/06/18 08:58:14;;;;;;;7.53;4.07;;;22.60;86.10;;;;;;5125529;27;45373;-72
2023/06/18 09:00:41;;;;;;;9.07;3.83;;;22.60;89.00;;;;;;5123627;27;45501;-72
2023/06/18 09:03:10;;;;;;;4.97;3.17;;;22.70;91.10;;;;;;5119913;27;45715;-71
2023/06/18 09:05:38;;;;;;;18.25;3.83;;;22.60;90.60;;;;;;5124198;27;45501;-70
2023/06/18 09:08:05;;;;;;;7.07;3.13;;;22.70;76.60;;;;;;5120716;27;45444;-70
2023/06/18 09:10:33;;;;;;;5.80;2.80;;;22.80;77.10;;;;;;5125136;27;45414;-67
2023/06/18 09:13:00;;;;;;;8.70;3.67;;;22.80;75.10;;;;;;5111442;27;45371;-69
2023/06/18 09:15:28;;;;;;;6.32;3.20;;;22.80;76.30;;;;;;5111537;27;45456;-71
2023/06/18 09:17:55;;;;;;;12.13;3.33;;;22.90;76.10;;;;;;5110214;27;45278;-71
2023/06/18 09:20:22;;;;;;;10.93;3.67;;;22.90;75.70;;;;;;5126516;27;45282;-70
2023/06/18 09:22:51;;;;;;;21.23;3.22;;;22.90;77.80;;;;;;5117336;27;45504;-70
2023/06/18 09:25:21;;;;;;;10.70;3.90;;;22.90;77.80;;;;;;5117117;27;45187;-71
2023/06/18 09:27:48;;;;;;;6.43;3.50;;;22.90;75.00;;;;;;5116388;27;45271;-71
2023/06/18 09:30:24;;;;;;;9.48;3.65;;;22.90;75.70;;;;;;5126748;27;45410;-71
2023/06/18 09:32:57;;;;;;;5.45;3.47;;;22.80;74.90;;;;;;5126321;27;46613;-70
2023/06/18 09:35:24;;;;;;;6.63;3.47;;;22.80;87.00;;;;;;5125943;27;45301;-71
2023/06/18 09:37:51;;;;;;;4.95;3.33;;;22.80;80.10;;;;;;5124756;27;45248;-70
2023/06/18 09:40:19;;;;;;;8.93;3.67;;;22.70;81.90;;;;;;5126107;27;45327;-70
2023/06/18 09:42:48;;;;;;;7.63;3.60;;;22.60;82.60;;;;;;5125145;27;45718;-71
2023/06/18 09:45:16;;;;;;;7.47;3.38;;;22.70;74.20;;;;;;5125127;27;45184;-70
2023/06/18 09:47:48;;;;;;;16.00;3.90;;;22.70;73.20;;;;;;5107798;27;45580;-68
2023/06/18 09:50:16;;;;;;;8.30;3.47;;;22.90;78.20;;;;;;5123818;27;45274;-71
2023/06/18 09:52:44;;;;;;;6.57;3.65;;;22.90;85.90;;;;;;5121701;27;45314;-71
2023/06/18 09:55:28;;;;;;;4.28;2.92;;;22.90;84.10;;;;;;5126181;27;45391;-71
2023/06/18 09:57:55;;;;;;;4.45;3.33;;;22.60;92.50;;;;;;5113311;27;45256;-72
2023/06/18 10:00:22;;;;;;;5.88;3.28;;;22.10;92.30;;;;;;5106188;27;45173;-71
2023/06/18 10:02:49;;;;;;;5.97;3.55;;;22.30;84.90;;;;;;5105465;27;45399;-71
2023/06/18 10:05:18;;;;;;;5.47;3.33;;;22.60;72.40;;;;;;5119977;27;45373;-70
2023/06/18 10:07:47;;;;;;;4.80;2.85;;;22.90;76.20;;;;;;5120648;27;45383;-71
2023/06/18 10:10:15;;;;;;;6.30;2.92;;;23.00;67.40;;;;;;5119943;27;45392;-72
2023/06/18 10:12:44;;;;;;;10.68;3.30;;;23.00;74.30;;;;;;5119918;27;46763;-71
2023/06/18 10:15:12;;;;;;;6.32;3.10;;;22.90;80.80;;;;;;5112549;27;45543;-71
2023/06/18 10:17:45;;;;;;;4.20;2.95;;;22.90;80.10;;;;;;5125070;27;45312;-71
2023/06/18 10:20:15;;;;;;;5.40;2.80;;;22.80;85.20;;;;;;5127730;27;45340;-71
2023/06/18 10:22:46;;;;;;;7.70;2.72;;;22.90;73.80;;;;;;5128554;27;47284;-71
2023/06/18 10:25:13;;;;;;;6.40;3.30;;;22.80;82.20;;;;;;5128412;27;45410;-71
2023/06/18 10:27:40;;;;;;;7.82;2.85;;;22.90;71.50;;;;;;5126442;27;45462;-71
2023/06/18 10:30:08;;;;;;;4.75;2.85;;;22.80;86.40;;;;;;5113322;27;45226;-71
2023/06/18 10:32:37;;;;;;;4.50;2.67;;;22.90;76.10;;;;;;5120883;27;46957;-71
2023/06/18 10:35:08;;;;;;;7.05;2.90;;;22.90;83.90;;;;;;5125805;27;45392;-71
2023/06/18 10:37:35;;;;;;;4.15;2.72;;;22.90;78.60;;;;;;5127055;27;45292;-71
2023/06/18 10:40:04;;;;;;;4.55;2.97;;;23.00;84.10;;;;;;5115959;27;45450;-71
2023/06/18 10:42:32;;;;;;;3.58;2.67;;;22.90;79.80;;;;;;5125036;27;47246;-71
2023/06/18 10:45:09;;;;;;;5.18;3.25;;;23.00;75.60;;;;;;5118371;27;45330;-71
2023/06/18 10:47:36;;;;;;;6.97;3.00;;;22.90;88.00;;;;;;5125660;27;45339;-71
2023/06/18 10:50:15;;;;;;;5.38;2.63;;;22.80;90.80;;;;;;5127698;27;45425;-71
2023/06/18 10:52:43;;;;;;;4.53;2.65;;;22.80;90.20;;;;;;5116318;27;48207;-71
2023/06/18 10:55:12;;;;;;;3.80;2.30;;;22.80;90.40;;;;;;5118361;27;45350;-71
2023/06/18 10:57:40;;;;;;;5.68;2.25;;;22.80;88.90;;;;;;5115816;27;45380;-71
2023/06/18 11:00:16;;;;;;;4.25;2.40;;;22.80;86.80;;;;;;5122014;27;45574;-71
2023/06/18 11:02:44;;;;;;;7.53;3.55;;;22.90;83.10;;;;;;5110312;27;46281;-71
2023/06/18 11:05:16;;;;;;;4.00;2.78;;;22.90;77.30;;;;;;5127183;27;45998;-71
2023/06/18 11:07:43;;;;;;;5.20;3.40;;;22.90;81.90;;;;;;5125019;27;45438;-71
2023/06/18 11:10:12;;;;;;;3.58;2.28;;;22.90;90.10;;;;;;5127934;27;45342;-71
2023/06/18 11:12:39;;;;;;;8.52;3.35;;;22.80;88.00;;;;;;5115554;27;46322;-71
2023/06/18 11:15:16;;;;;;;4.22;2.80;;;22.90;79.60;;;;;;5121782;27;45332;-71
2023/06/18 11:17:46;;;;;;;4.45;2.80;;;22.90;89.80;;;;;;5126096;27;45352;-71
2023/06/18 11:20:13;;;;;;;4.72;3.05;;;22.90;82.50;;;;;;5127299;27;45374;-71
2023/06/18 11:22:41;;;;;;;5.13;3.10;;;22.90;80.80;;;;;;5127034;27;47526;-71
2023/06/18 11:25:12;;;;;;;3.85;2.80;;;22.90;80.70;;;;;;5126944;27;45263;-71
2023/06/18 11:27:40;;;;;;;4.60;2.92;;;22.90;79.80;;;;;;5118159;27;45235;-71
2023/06/18 11:30:09;;;;;;;6.93;3.15;;;22.90;79.00;;;;;;5127313;27;45281;-71
2023/06/18 11:32:36;;;;;;;5.60;2.97;;;22.90;85.20;;;;;;5126570;27;47182;-71
2023/06/18 11:35:05;;;;;;;5.93;2.17;;;22.90;85.50;;;;;;5118227;27;45329;-71
2023/06/18 11:37:32;;;;;;;2.78;1.92;;;22.90;83.90;;;;;;5127115;27;45221;-71
2023/06/18 11:39:59;;;;;;;3.47;2.30;;;22.90;85.30;;;;;;5118851;27;45729;-71
2023/06/18 11:42:28;;;;;;;3.40;2.20;;;22.90;85.10;;;;;;5126746;27;45446;-71
2023/06/18 11:44:57;;;;;;;3.47;2.28;;;22.90;85.60;;;;;;5109991;27;45295;-71
2023/06/18 11:47:23;;;;;;;2.67;2.03;;;22.90;85.90;;;;;;5126899;27;45311;-71
2023/06/18 11:49:52;;;;;;;6.50;2.42;;;22.90;86.60;;;;;;5126734;27;45256;-71
2023/06/18 11:52:20;;;;;;;2.47;1.83;;;22.90;86.80;;;;;;5126351;27;46612;-71
2023/06/18 11:54:48;;;;;;;3.13;1.80;;;22.80;89.20;;;;;;5121854;27;46027;-71
2023/06/18 11:57:16;;;;;;;2.67;2.05;;;22.80;88.50;;;;;;5118140;27;45257;-71
2023/06/18 11:59:45;;;;;;;5.60;2.60;;;22.80;91.80;;;;;;5124528;27;45417;-71
2023/06/18 12:02:13;;;;;;;2.08;1.88;;;22.70;90.80;;;;;;5121191;27;46623;-71
2023/06/18 12:04:40;;;;;;;3.13;2.00;;;22.70;90.40;;;;;;5126101;27;45645;-71
2023/06/18 12:07:07;;;;;;;3.15;2.08;;;22.80;90.20;;;;;;5111028;27;45413;-71
2023/06/18 12:09:35;;;;;;;2.67;2.00;;;22.70;90.20;;;;;;5123142;27;45424;-71
2023/06/18 12:12:14;;;;;;;5.50;2.10;;;22.80;89.60;;;;;;5120787;27;48380;-71
2023/06/18 12:14:48;;;;;;;5.00;2.88;;;22.80;88.40;;;;;;5116108;27;45497;-71
2023/06/18 12:17:25;;;;;;;7.70;3.10;;;22.80;86.90;;;;;;5117695;27;45496;-71
2023/06/18 12:19:59;;;;;;;3.78;2.83;;;22.80;87.10;;;;;;5108156;27;45390;-71
2023/06/18 12:22:27;;;;;;;2.97;2.47;;;22.80;90.10;;;;;;5113577;27;46715;-71
2023/06/18 12:24:54;;;;;;;8.13;2.92;;;22.70;90.80;;;;;;5119117;27;45258;-71
2023/06/18 12:27:24;;;;;;;6.03;2.70;;;22.70;88.60;;;;;;5126116;27;45295;-72
2023/06/18 12:29:53;;;;;;;5.22;3.60;;;22.70;87.70;;;;;;5114727;27;45320;-71
2023/06/18 12:32:19;;;;;;;9.00;3.28;;;22.70;82.30;;;;;;5125031;27;46603;-71
2023/06/18 12:34:46;;;;;;;3.67;2.30;;;22.80;80.70;;;;;;5123992;27;46139;-71
2023/06/18 12:37:13;;;;;;;5.78;3.00;;;22.80;84.90;;;;;;5119710;27;45200;-71
2023/06/18 12:39:40;;;;;;;3.10;2.38;;;22.80;85.30;;;;;;5115208;27;45294;-71
2023/06/18 12:42:12;;;;;;;5.05;3.35;;;22.70;90.00;;;;;;5119325;27;45269;-71
2023/06/18 12:44:41;;;;;;;3.63;2.70;;;22.70;90.30;;;;;;5124113;27;45505;-71
2023/06/18 12:47:12;;;;;;;3.10;2.25;;;22.70;91.10;;;;;;5119474;27;45519;-71
2023/06/18 12:49:39;;;;;;;2.83;2.25;;;22.70;92.10;;;;;;5108198;27;45356;-71
2023/06/18 12:52:15;;;;;;;4.45;2.88;;;22.70;91.00;;;;;;5111945;27;46098;-71
2023/06/18 12:54:41;;;;;;;2.08;1.67;;;22.70;90.70;;;;;;5111657;27;45440;-71
2023/06/18 12:57:09;;;;;;;2.10;1.90;;;22.70;91.30;;;;;;5110571;27;45241;-72